createdAt,value
2019-02-23T00:02:03.202Z,101720.49
2019-02-23T00:07:18.655Z,101716.61
2019-02-23T00:09:45.269Z,101722.60
2019-02-23T00:12:11.844Z,101724.31
2019-02-23T00:14:38.441Z,101722.14
2019-02-23T00:17:05.008Z,101731.64
2019-02-23T00:19:31.602Z,101731.18
2019-02-23T00:21:58.188Z,101733.35
2019-02-23T00:24:24.788Z,101733.70
2019-02-23T00:26:51.363Z,101733.65
2019-02-23T00:29:17.980Z,101739.23
2019-02-23T00:31:44.567Z,101740.03
2019-02-23T00:34:11.182Z,101747.31
2019-02-23T00:36:37.762Z,101750.66
2019-02-23T00:39:04.383Z,101758.82
2019-02-23T00:41:30.965Z,101761.77
2019-02-23T00:43:57.605Z,101765.16
2019-02-23T00:46:24.187Z,101767.28
2019-02-23T00:48:50.779Z,101762.88
2019-02-23T00:51:17.348Z,101770.57
2019-02-23T00:53:43.966Z,101760.59
2019-02-23T00:56:10.536Z,101760.98
2019-02-23T00:58:37.167Z,101759.64
2019-02-23T01:01:03.760Z,101769.91
2019-02-23T01:03:30.336Z,101760.75
2019-02-23T01:05:56.935Z,101768.38
2019-02-23T01:08:23.580Z,101776.48
2019-02-23T01:10:57.682Z,101776.02
2019-02-23T01:13:18.459Z,101770.77
2019-02-23T01:15:45.031Z,101776.28
2019-02-23T01:18:11.601Z,101783.55
2019-02-23T01:20:38.191Z,101781.80
2019-02-23T01:23:04.764Z,101780.39
2019-02-23T01:25:31.333Z,101782.50
2019-02-23T01:27:57.909Z,101779.03
2019-02-23T01:30:25.996Z,101785.43
2019-02-23T01:32:52.707Z,101779.33
2019-02-23T01:35:19.286Z,101782.23
2019-02-23T01:37:45.872Z,101778.71
2019-02-23T01:40:12.440Z,101782.94
2019-02-23T01:42:39.019Z,101792.31
2019-02-23T01:45:05.593Z,101782.75
2019-02-23T01:47:32.156Z,101788.33
2019-02-23T01:49:59.358Z,101792.55
2019-02-23T01:52:26.106Z,101795.53
2019-02-23T01:54:52.679Z,101789.43
2019-02-23T01:57:19.337Z,101791.55
2019-02-23T01:59:45.918Z,101791.11
2019-02-23T02:02:12.495Z,101785.00
2019-02-23T02:04:39.059Z,101788.41
2019-02-23T02:07:05.634Z,101785.35
2019-02-23T02:09:32.212Z,101786.99
2019-02-23T02:11:58.872Z,101777.49
2019-02-23T02:14:25.573Z,101789.04
2019-02-23T02:16:52.197Z,101782.87
2019-02-23T02:19:18.811Z,101786.19
2019-02-23T02:21:45.377Z,101800.38
2019-02-23T02:24:11.980Z,101798.61
2019-02-23T02:26:38.554Z,101798.95
2019-02-23T02:29:05.171Z,101794.62
2019-02-23T02:31:31.751Z,101802.70
2019-02-23T02:33:58.324Z,101798.77
2019-02-23T02:36:24.901Z,101803.39
2019-02-23T02:38:51.506Z,101805.85
2019-02-23T02:41:18.124Z,101801.48
2019-02-23T02:43:44.687Z,101799.66
2019-02-23T02:46:11.295Z,101805.57
2019-02-23T02:48:37.866Z,101800.34
2019-02-23T02:51:04.475Z,101806.26
2019-02-23T02:53:31.050Z,101805.31
2019-02-23T02:55:57.658Z,101808.64
2019-02-23T02:58:24.240Z,101810.31
2019-02-23T03:00:50.825Z,101811.47
2019-02-23T03:03:17.406Z,101809.64
2019-02-23T03:05:44.029Z,101817.25
2019-02-23T03:08:10.599Z,101818.88
2019-02-23T03:10:37.214Z,101814.95
2019-02-23T03:13:03.840Z,101808.44
2019-02-23T03:15:30.489Z,101818.72
2019-02-23T03:17:57.065Z,101823.40
2019-02-23T03:20:35.931Z,101824.15
2019-02-23T03:22:52.021Z,101829.17
2019-02-23T03:25:18.634Z,101832.63
2019-02-23T03:27:45.203Z,101832.09
2019-02-23T03:30:11.851Z,101826.47
2019-02-23T03:32:38.675Z,101821.72
2019-02-23T03:35:05.299Z,101823.48
2019-02-23T03:37:31.860Z,101817.38
2019-02-23T03:39:58.471Z,101824.70
2019-02-23T03:42:25.038Z,101822.94
2019-02-23T03:44:51.681Z,101824.09
2019-02-23T03:47:18.267Z,101829.63
2019-02-23T03:49:44.976Z,101827.45
2019-02-23T03:52:11.545Z,101828.27
2019-02-23T03:54:38.163Z,101823.94
2019-02-23T03:57:04.732Z,101825.63
2019-02-23T03:59:31.297Z,101822.98
2019-02-23T04:01:57.878Z,101827.25
2019-02-23T04:04:24.444Z,101827.66
2019-02-23T04:06:51.014Z,101832.27
2019-02-23T04:09:17.586Z,101828.81
2019-02-23T04:11:44.166Z,101838.17
2019-02-23T04:14:10.751Z,101832.07
2019-02-23T04:16:37.317Z,101835.46
2019-02-23T04:19:03.899Z,101826.00
2019-02-23T04:21:30.468Z,101822.08
2019-02-23T04:23:57.038Z,101819.09
2019-02-23T04:26:23.606Z,101821.94
2019-02-23T04:28:50.186Z,101827.02
2019-02-23T04:31:16.752Z,101833.73
2019-02-23T04:33:43.327Z,101834.34
2019-02-23T04:36:09.976Z,101842.30
2019-02-23T04:38:36.560Z,101845.62
2019-02-23T04:41:03.135Z,101844.60
2019-02-23T04:43:29.714Z,101850.56
2019-02-23T04:45:56.282Z,101850.56
2019-02-23T04:48:22.879Z,101842.02
2019-02-23T04:50:49.614Z,101845.89
2019-02-23T04:53:16.175Z,101836.87
2019-02-23T04:55:42.748Z,101833.02
2019-02-23T04:58:09.325Z,101842.50
2019-02-23T05:00:35.902Z,101842.84
2019-02-23T05:03:02.476Z,101841.55
2019-02-23T05:05:29.051Z,101840.67
2019-02-23T05:07:55.626Z,101837.95
2019-02-23T05:10:22.208Z,101834.86
2019-02-23T05:12:48.778Z,101829.65
2019-02-23T05:15:15.355Z,101828.62
2019-02-23T05:17:41.936Z,101841.91
2019-02-23T05:20:08.524Z,101832.83
2019-02-23T05:22:35.101Z,101845.55
2019-02-23T05:25:01.707Z,101853.10
2019-02-23T05:27:28.361Z,101853.84
2019-02-23T05:29:54.931Z,101855.32
2019-02-23T05:32:21.622Z,101853.89
2019-02-23T05:34:48.304Z,101863.59
2019-02-23T05:37:14.976Z,101873.75
2019-02-23T05:39:41.558Z,101872.80
2019-02-23T05:42:08.160Z,101870.22
2019-02-23T05:44:34.740Z,101871.09
2019-02-23T05:47:01.398Z,101866.50
2019-02-23T05:49:27.976Z,101870.07
2019-02-23T05:51:54.587Z,101873.27
2019-02-23T05:54:21.209Z,101869.47
2019-02-23T05:56:47.873Z,101874.36
2019-02-23T05:59:14.443Z,101877.08
2019-02-23T06:01:41.060Z,101885.31
2019-02-23T06:04:07.635Z,101881.20
2019-02-23T06:06:34.234Z,101891.16
2019-02-23T06:09:00.816Z,101891.56
2019-02-23T06:11:27.471Z,101889.80
2019-02-23T06:13:54.042Z,101898.81
2019-02-23T06:16:20.649Z,101906.68
2019-02-23T06:18:47.213Z,101907.49
2019-02-23T06:21:13.846Z,101910.88
2019-02-23T06:23:40.420Z,101914.26
2019-02-23T06:26:07.046Z,101915.07
2019-02-23T06:28:33.671Z,101918.45
2019-02-23T06:31:00.272Z,101921.03
2019-02-23T06:33:26.851Z,101924.08
2019-02-23T06:35:53.445Z,101928.90
2019-02-23T06:38:20.024Z,101926.06
2019-02-23T06:40:46.647Z,101930.21
2019-02-23T06:43:13.264Z,101924.66
2019-02-23T06:45:39.899Z,101918.80
2019-02-23T06:48:06.473Z,101916.03
2019-02-23T06:50:33.047Z,101911.98
2019-02-23T06:52:59.627Z,101924.38
2019-02-23T06:55:26.203Z,101926.89
2019-02-23T06:57:52.777Z,101928.30
2019-02-23T07:00:19.359Z,101931.05
2019-02-23T07:02:45.940Z,101933.94
2019-02-23T07:05:12.531Z,101943.26
2019-02-23T07:07:39.125Z,101939.61
2019-02-23T07:10:05.698Z,101942.40
2019-02-23T07:12:32.276Z,101939.48
2019-02-23T07:14:58.847Z,101937.03
2019-02-23T07:17:25.435Z,101939.85
2019-02-23T07:19:52.003Z,101939.14
2019-02-23T07:22:18.624Z,101940.19
2019-02-23T07:24:45.232Z,101948.03
2019-02-23T07:27:11.808Z,101951.11
2019-02-23T07:29:38.382Z,101956.42
2019-02-23T07:32:04.960Z,101947.03
2019-02-23T07:34:31.555Z,101940.21
2019-02-23T07:36:58.194Z,101947.14
2019-02-23T07:39:24.854Z,101952.83
2019-02-23T07:41:51.464Z,101960.16
2019-02-23T07:44:18.074Z,101952.88
2019-02-23T07:46:44.649Z,101958.61
2019-02-23T07:49:11.222Z,101959.09
2019-02-23T07:51:37.810Z,101967.72
2019-02-23T07:54:04.379Z,101968.14
2019-02-23T07:56:30.996Z,101972.89
2019-02-23T07:58:57.574Z,101977.60
2019-02-23T08:01:24.192Z,101989.15
2019-02-23T08:03:50.775Z,101992.08
2019-02-23T08:06:17.397Z,102000.61
2019-02-23T08:08:43.963Z,102007.89
2019-02-23T08:11:10.575Z,102006.46
2019-02-23T08:13:37.153Z,102005.06
2019-02-23T08:16:03.731Z,102013.58
2019-02-23T08:18:30.302Z,102007.45
2019-02-23T08:20:56.873Z,102000.55
2019-02-23T08:23:23.449Z,102009.22
2019-02-23T08:25:50.020Z,102020.02
2019-02-23T08:28:16.599Z,102015.64
2019-02-23T08:30:43.156Z,102030.75
2019-02-23T08:33:09.742Z,102020.65
2019-02-23T08:35:36.307Z,102024.39
2019-02-23T08:38:02.884Z,102025.91
2019-02-23T08:40:29.524Z,102027.00
2019-02-23T08:42:56.134Z,102025.06
2019-02-23T08:45:23.702Z,102032.27
2019-02-23T08:47:50.307Z,102020.33
2019-02-23T08:50:16.890Z,102016.22
2019-02-23T08:52:49.247Z,102016.44
2019-02-23T08:55:11.784Z,102020.98
2019-02-23T08:57:38.390Z,102027.28
2019-02-23T09:00:04.956Z,102019.70
2019-02-23T09:02:31.564Z,102021.26
2019-02-23T09:04:58.168Z,102024.05
2019-02-23T09:07:24.816Z,102027.30
2019-02-23T09:09:51.396Z,102041.45
2019-02-23T09:12:18.013Z,102042.09
2019-02-23T09:14:44.580Z,102048.42
2019-02-23T09:17:11.225Z,102044.72
2019-02-23T09:19:40.101Z,102034.94
2019-02-23T09:22:06.779Z,102028.20
2019-02-23T09:24:35.602Z,102019.68
2019-02-23T09:27:02.204Z,102031.62
2019-02-23T09:29:28.833Z,102017.47
2019-02-23T09:31:55.435Z,102015.47
2019-02-23T09:34:22.030Z,102016.53
2019-02-23T09:36:48.671Z,102016.64
2019-02-23T09:39:17.148Z,102029.79
2019-02-23T09:41:43.736Z,102039.47
2019-02-23T09:44:10.319Z,102029.05
2019-02-23T09:46:36.921Z,102029.61
2019-02-23T09:49:03.493Z,102033.59
2019-02-23T09:51:30.078Z,102044.98
2019-02-23T09:53:56.655Z,102052.00
2019-02-23T09:56:23.225Z,102054.18
2019-02-23T09:58:49.795Z,102057.66
2019-02-23T10:01:16.380Z,102064.64
2019-02-23T10:03:42.950Z,102079.09
2019-02-23T10:06:09.513Z,102071.26
2019-02-23T10:08:36.101Z,102065.17
2019-02-23T10:11:02.678Z,102053.83
2019-02-23T10:13:29.255Z,102046.86
2019-02-23T10:15:55.838Z,102039.86
2019-02-23T10:18:22.424Z,102049.92
2019-02-23T10:20:48.983Z,102042.48
2019-02-23T10:23:21.913Z,102034.17
2019-02-23T10:25:43.856Z,102035.51
2019-02-23T10:28:10.433Z,102041.61
2019-02-23T10:30:37.026Z,102042.92
2019-02-23T10:33:03.606Z,102035.94
2019-02-23T10:35:30.181Z,102031.11
2019-02-23T10:37:56.759Z,102023.61
2019-02-23T10:40:23.327Z,102020.42
2019-02-23T10:42:49.923Z,102021.09
2019-02-23T10:45:16.503Z,102006.73
2019-02-23T10:47:43.077Z,101997.48
2019-02-23T10:50:09.653Z,101980.17
2019-02-23T10:52:36.264Z,101987.44
2019-02-23T10:55:02.835Z,101987.16
2019-02-23T10:57:29.450Z,101989.44
2019-02-23T10:59:56.030Z,101986.41
2019-02-23T11:02:22.638Z,101989.00
2019-02-23T11:04:49.219Z,101974.48
2019-02-23T11:07:15.815Z,101972.55
2019-02-23T11:09:42.384Z,101968.16
2019-02-23T11:12:08.997Z,101972.09
2019-02-23T11:14:35.572Z,101973.59
2019-02-23T11:17:02.145Z,101978.92
2019-02-23T11:19:28.718Z,101972.72
2019-02-23T11:21:55.898Z,101971.14
2019-02-23T11:24:22.472Z,101976.53
2019-02-23T11:26:49.051Z,101975.05
2019-02-23T11:29:15.629Z,101976.45
2019-02-23T11:31:42.208Z,101966.91
2019-02-23T11:34:08.789Z,101957.94
2019-02-23T11:36:35.369Z,101955.20
2019-02-23T11:39:01.937Z,101959.23
2019-02-23T11:41:28.507Z,101961.84
2019-02-23T11:43:55.113Z,101956.55
2019-02-23T11:46:21.679Z,101965.83
2019-02-23T11:48:48.254Z,101960.30
2019-02-23T11:51:14.832Z,101959.09
2019-02-23T11:53:41.409Z,101952.13
2019-02-23T11:56:07.978Z,101955.61
2019-02-23T11:58:34.559Z,101950.62
2019-02-23T12:01:01.131Z,101940.28
2019-02-23T12:03:27.715Z,101937.89
2019-02-23T12:05:54.302Z,101929.31
2019-02-23T12:08:20.885Z,101918.89
2019-02-23T12:10:47.453Z,101916.30
2019-02-23T12:13:14.093Z,101914.06
2019-02-23T12:15:40.677Z,101910.97
2019-02-23T12:18:07.258Z,101900.42
2019-02-23T12:20:33.828Z,101907.84
2019-02-23T12:23:00.428Z,101900.36
2019-02-23T12:25:27.016Z,101896.40
2019-02-23T12:27:53.625Z,101900.38
2019-02-23T12:30:20.212Z,101900.48
2019-02-23T12:32:46.817Z,101896.56
2019-02-23T12:35:13.385Z,101886.09
2019-02-23T12:37:39.958Z,101888.98
2019-02-23T12:40:06.542Z,101890.50
2019-02-23T12:42:33.112Z,101886.55
2019-02-23T12:44:59.702Z,101882.00
2019-02-23T12:47:26.275Z,101873.92
2019-02-23T12:49:52.844Z,101872.35
2019-02-23T12:52:19.419Z,101878.25
2019-02-23T12:54:46.000Z,101873.05
2019-02-23T12:57:12.570Z,101880.16
2019-02-23T12:59:39.146Z,101869.25
2019-02-23T13:02:05.727Z,101865.61
2019-02-23T13:04:32.302Z,101865.48
2019-02-23T13:06:58.877Z,101864.47
2019-02-23T13:09:25.496Z,101862.33
2019-02-23T13:11:52.083Z,101860.12
2019-02-23T13:14:18.731Z,101865.61
2019-02-23T13:16:45.299Z,101871.30
2019-02-23T13:19:11.915Z,101859.84
2019-02-23T13:21:38.482Z,101862.59
2019-02-23T13:24:05.074Z,101869.63
2019-02-23T13:26:31.657Z,101871.20
2019-02-23T13:28:58.239Z,101860.15
2019-02-23T13:31:24.825Z,101866.00
2019-02-23T13:33:51.397Z,101863.08
2019-02-23T13:36:17.995Z,101871.28
2019-02-23T13:38:44.571Z,101860.39
2019-02-23T13:41:11.169Z,101861.69
2019-02-23T13:43:37.744Z,101866.08
2019-02-23T13:46:04.359Z,101857.59
2019-02-23T13:48:30.947Z,101860.40
2019-02-23T13:50:57.525Z,101858.05
2019-02-23T13:53:24.095Z,101857.75
2019-02-23T13:55:50.677Z,101855.28
2019-02-23T13:58:18.959Z,101855.64
2019-02-23T14:00:45.631Z,101858.03
2019-02-23T14:03:12.243Z,101856.88
2019-02-23T14:05:38.830Z,101859.80
2019-02-23T14:08:05.425Z,101860.17
2019-02-23T14:10:32.006Z,101855.72
2019-02-23T14:12:58.580Z,101852.41
2019-02-23T14:15:25.161Z,101856.71
2019-02-23T14:17:51.758Z,101847.98
2019-02-23T14:20:18.333Z,101847.61
2019-02-23T14:22:44.941Z,101857.34
2019-02-23T14:25:11.510Z,101854.80
2019-02-23T14:27:38.192Z,101856.77
2019-02-23T14:30:04.863Z,101852.12
2019-02-23T14:32:31.439Z,101860.20
2019-02-23T14:34:58.016Z,101854.70
2019-02-23T14:37:24.592Z,101856.78
2019-02-23T14:39:51.218Z,101852.84
2019-02-23T14:42:17.875Z,101858.81
2019-02-23T14:44:44.561Z,101859.30
2019-02-23T14:47:11.147Z,101856.22
2019-02-23T14:49:37.728Z,101844.17
2019-02-23T14:52:04.316Z,101843.07
2019-02-23T14:54:30.902Z,101849.25
2019-02-23T14:56:57.504Z,101848.56
2019-02-23T14:59:24.191Z,101841.11
2019-02-23T15:01:50.947Z,101844.61
2019-02-23T15:04:18.115Z,101839.59
2019-02-23T15:06:44.719Z,101833.30
2019-02-23T15:09:11.314Z,101826.91
2019-02-23T15:11:37.929Z,101823.83
2019-02-23T15:14:04.501Z,101819.28
2019-02-23T15:16:31.082Z,101818.33
2019-02-23T15:18:57.666Z,101805.20
2019-02-23T15:21:24.248Z,101802.69
2019-02-23T15:23:50.833Z,101803.41
2019-02-23T15:26:17.417Z,101809.72
2019-02-23T15:28:43.990Z,101806.52
2019-02-23T15:31:10.563Z,101819.64
2019-02-23T15:33:37.168Z,101826.95
2019-02-23T15:36:04.097Z,101839.06
2019-02-23T15:38:30.751Z,101842.60
2019-02-23T15:40:57.341Z,101842.39
2019-02-23T15:43:24.020Z,101853.97
2019-02-23T15:45:50.727Z,101854.73
2019-02-23T15:48:17.370Z,101858.52
2019-02-23T15:50:43.983Z,101856.11
2019-02-23T15:53:10.633Z,101861.16
2019-02-23T15:55:37.258Z,101868.75
2019-02-23T15:58:03.832Z,101868.89
2019-02-23T16:00:30.455Z,101872.02
2019-02-23T16:02:57.030Z,101871.08
2019-02-23T16:05:23.590Z,101881.41
2019-02-23T16:07:50.162Z,101888.08
2019-02-23T16:10:17.936Z,101884.05
2019-02-23T16:12:45.475Z,101882.59
2019-02-23T16:15:12.097Z,101875.36
2019-02-23T16:17:38.718Z,101871.09
2019-02-23T16:20:05.306Z,101867.65
2019-02-23T16:22:31.880Z,101858.05
2019-02-23T16:24:58.493Z,101841.88
2019-02-23T16:27:25.065Z,101840.50
2019-02-23T16:29:51.655Z,101836.08
2019-02-23T16:32:18.224Z,101826.39
2019-02-23T16:34:44.821Z,101820.64
2019-02-23T16:37:11.394Z,101822.73
2019-02-23T16:39:40.471Z,101828.31
2019-02-23T16:42:06.368Z,101822.14
2019-02-23T16:44:32.980Z,101819.45
2019-02-23T16:46:59.594Z,101820.68
2019-02-23T16:49:26.179Z,101816.22
2019-02-23T16:51:52.765Z,101816.17
2019-02-23T16:54:20.333Z,101829.58
2019-02-23T16:56:46.909Z,101836.03
2019-02-23T16:59:13.520Z,101848.56
2019-02-23T17:01:40.096Z,101847.60
2019-02-23T17:04:06.675Z,101851.91
2019-02-23T17:06:33.384Z,101843.55
2019-02-23T17:09:00.048Z,101836.07
2019-02-23T17:11:26.657Z,101822.98
2019-02-23T17:13:53.237Z,101826.37
2019-02-23T17:16:19.809Z,101829.31
2019-02-23T17:18:46.384Z,101816.11
2019-02-23T17:21:13.002Z,101829.44
2019-02-23T17:23:39.617Z,101837.95
2019-02-23T17:26:06.233Z,101840.91
2019-02-23T17:28:32.952Z,101843.81
2019-02-23T17:30:59.531Z,101853.70
2019-02-23T17:33:27.980Z,101861.38
2019-02-23T17:35:54.474Z,101849.08
2019-02-23T17:38:21.041Z,101842.47
2019-02-23T17:43:31.903Z,101840.94
2019-02-23T17:45:58.479Z,101847.73
2019-02-23T17:48:25.173Z,101839.36
2019-02-23T17:50:51.756Z,101824.53
2019-02-23T17:53:18.323Z,101800.59
2019-02-23T17:55:44.895Z,101800.06
2019-02-23T17:58:11.496Z,101799.50
2019-02-23T18:00:38.080Z,101810.64
2019-02-23T18:03:04.648Z,101800.99
2019-02-23T18:05:31.223Z,101804.41
2019-02-23T18:07:57.838Z,101801.36
2019-02-23T18:10:24.478Z,101799.60
2019-02-23T18:12:51.104Z,101793.89
2019-02-23T18:15:17.681Z,101801.69
2019-02-23T18:17:44.257Z,101803.87
2019-02-23T18:20:11.106Z,101804.32
2019-02-23T18:22:38.188Z,101811.73
2019-02-23T18:25:04.835Z,101815.21
2019-02-23T18:27:31.491Z,101810.43
2019-02-23T18:29:58.366Z,101810.01
2019-02-23T18:32:25.454Z,101816.48
2019-02-23T18:34:53.795Z,101792.11
2019-02-23T18:37:20.427Z,101784.97
2019-02-23T18:39:47.032Z,101788.68
2019-02-23T18:42:13.606Z,101782.45
2019-02-23T18:44:40.191Z,101776.59
2019-02-23T18:47:06.813Z,101772.05
2019-02-23T18:49:33.415Z,101772.34
2019-02-23T18:52:00.043Z,101776.59
2019-02-23T18:54:26.626Z,101778.63
2019-02-23T18:56:53.191Z,101780.21
2019-02-23T18:59:19.774Z,101776.17
2019-02-23T19:01:46.390Z,101767.02
2019-02-23T19:04:12.966Z,101759.67
2019-02-23T19:06:39.577Z,101748.86
2019-02-23T19:09:06.147Z,101754.12
2019-02-23T19:11:32.762Z,101750.27
2019-02-23T19:13:59.335Z,101745.59
2019-02-23T19:16:25.925Z,101750.44
2019-02-23T19:18:52.505Z,101746.61
2019-02-23T19:21:19.086Z,101741.44
2019-02-23T19:23:45.658Z,101730.62
2019-02-23T19:26:12.263Z,101725.02
2019-02-23T19:28:43.165Z,101721.53
2019-02-23T19:31:07.195Z,101731.86
2019-02-23T19:33:33.769Z,101736.95
2019-02-23T19:36:00.378Z,101735.10
2019-02-23T19:38:26.960Z,101735.91
2019-02-23T19:40:53.559Z,101736.30
2019-02-23T19:43:20.138Z,101735.39
2019-02-23T19:45:46.730Z,101737.53
2019-02-23T19:48:13.352Z,101732.33
2019-02-23T19:50:40.418Z,101735.80
2019-02-23T19:53:07.049Z,101738.44
2019-02-23T19:55:33.815Z,101744.91
2019-02-23T19:58:00.388Z,101744.02
2019-02-23T20:00:27.067Z,101744.02
2019-02-23T20:02:53.647Z,101747.05
2019-02-23T20:05:20.228Z,101754.45
2019-02-23T20:07:46.805Z,101759.29
2019-02-23T20:10:13.383Z,101759.36
2019-02-23T20:12:39.956Z,101764.20
2019-02-23T20:15:06.538Z,101781.16
2019-02-23T20:17:33.109Z,101779.09
2019-02-23T20:19:59.676Z,101789.16
2019-02-23T20:22:26.254Z,101773.18
2019-02-23T20:24:52.830Z,101778.41
2019-02-23T20:27:19.418Z,101776.27
2019-02-23T20:29:46.102Z,101767.62
2019-02-23T20:32:12.719Z,101767.20
2019-02-23T20:34:39.328Z,101758.53
2019-02-23T20:37:05.912Z,101742.88
2019-02-23T20:39:32.572Z,101746.73
2019-02-23T20:41:59.156Z,101746.67
2019-02-23T20:44:25.728Z,101749.23
2019-02-23T20:46:52.300Z,101738.84
2019-02-23T20:49:18.907Z,101732.73
2019-02-23T20:51:45.583Z,101728.74
2019-02-23T20:54:12.157Z,101725.20
2019-02-23T20:56:38.778Z,101724.22
2019-02-23T20:59:05.394Z,101729.70
2019-02-23T21:01:32.030Z,101727.95
2019-02-23T21:03:58.660Z,101733.91
2019-02-23T21:06:25.264Z,101739.07
2019-02-23T21:08:51.836Z,101732.55
2019-02-23T21:11:18.523Z,101744.23
2019-02-23T21:13:45.131Z,101749.42
2019-02-23T21:16:11.743Z,101751.18
2019-02-23T21:18:38.330Z,101763.81
2019-02-23T21:21:04.942Z,101770.38
2019-02-23T21:23:31.515Z,101760.45
2019-02-23T21:25:58.097Z,101755.25
2019-02-23T21:28:24.670Z,101748.30
2019-02-23T21:30:51.244Z,101741.81
2019-02-23T21:33:17.817Z,101751.67
2019-02-23T21:35:44.498Z,101765.08
2019-02-23T21:38:11.081Z,101776.31
2019-02-23T21:40:37.649Z,101784.94
2019-02-23T21:43:04.228Z,101764.20
2019-02-23T21:45:30.839Z,101762.55
2019-02-23T21:47:57.461Z,101753.08
2019-02-23T21:50:24.040Z,101747.92
2019-02-23T21:52:50.611Z,101750.48
2019-02-23T21:55:17.195Z,101742.69
2019-02-23T21:57:43.787Z,101749.04
2019-02-23T22:00:10.361Z,101754.94
2019-02-23T22:02:37.004Z,101766.09
2019-02-23T22:05:11.712Z,101762.54
2019-02-23T22:07:31.915Z,101771.63
2019-02-23T22:09:58.867Z,101766.02
2019-02-23T22:12:25.533Z,101767.31
2019-02-23T22:14:52.178Z,101763.88
2019-02-23T22:17:19.303Z,101759.03
2019-02-23T22:19:45.880Z,101757.66
2019-02-23T22:22:12.473Z,101760.67
2019-02-23T22:24:41.587Z,101761.09
2019-02-23T22:27:08.937Z,101758.88
2019-02-23T22:29:35.642Z,101760.14
2019-02-23T22:32:02.227Z,101757.08
2019-02-23T22:34:28.803Z,101748.31
2019-02-23T22:36:55.406Z,101734.34
2019-02-23T22:39:21.980Z,101725.52
2019-02-23T22:41:49.845Z,101741.32
2019-02-23T22:44:16.661Z,101736.02
2019-02-23T22:46:43.244Z,101732.47
2019-02-23T22:49:09.828Z,101723.72
2019-02-23T22:51:36.416Z,101718.92
2019-02-23T22:54:02.987Z,101716.74
2019-02-23T22:56:29.567Z,101721.47
2019-02-23T22:58:56.145Z,101716.20
2019-02-23T23:01:22.827Z,101710.94
2019-02-23T23:03:49.419Z,101710.39
2019-02-23T23:06:15.985Z,101716.38
2019-02-23T23:08:42.575Z,101714.63
2019-02-23T23:11:09.152Z,101717.59
2019-02-23T23:13:35.743Z,101713.25
2019-02-23T23:16:02.317Z,101708.94
2019-02-23T23:18:28.890Z,101715.92
2019-02-23T23:20:55.477Z,101724.20
2019-02-23T23:23:22.057Z,101721.31
2019-02-23T23:25:48.624Z,101713.69
2019-02-23T23:28:15.200Z,101709.45
2019-02-23T23:30:41.780Z,101716.09
2019-02-23T23:33:08.385Z,101719.69
2019-02-23T23:35:34.966Z,101722.39
2019-02-23T23:38:01.567Z,101724.23
2019-02-23T23:40:28.136Z,101710.48
2019-02-23T23:42:58.153Z,101708.38
2019-02-23T23:45:23.057Z,101702.84
2019-02-23T23:47:49.651Z,101702.84
2019-02-23T23:50:16.228Z,101703.34
2019-02-23T23:52:42.839Z,101699.87
2019-02-23T23:55:09.402Z,101689.94
2019-02-23T23:57:36.024Z,101689.98
